Benton Harbor, Michigan
Current Conditions -  °F | °C
As of 11:53 AM on Friday 24 Oct 2014 (Local Time) from KBEH Reporting Station
Overcast Overcast  
Wind Chill: 56°   Ceiling: 3600
Heat Index: 56°   Visibility: 9mi
Dew Point: 49°   Wind: 8mph
Humidity: 77%   Direction: 230°SW
Pressure: 30.06"   Gusts: NA
Location:  42.12°N, 86.46°W
Report Text: KBEH 241553Z AUTO 23007KT 9SM OVC036 13/09 A3006 RMK AO2 SLP180 T01330094
Loading
Personal Weather Stations






























Interactive Weather Map
Tropical Storm Tracking
New forecast layout! Learn more

10-Day Weather Forecast

Advertisements
Track Severe Weather on mobile